sensor_id;sensor_type;location;lat;lon;timestamp;P1;durP1;ratioP1;P2;durP2;ratioP2
17259;SDS011;8746;49.230;9.220;2022-11-20T00:02:17;20.80;;;13.47;;
17259;SDS011;8746;49.230;9.220;2022-11-20T00:04:42;18.53;;;12.00;;
17259;SDS011;8746;49.230;9.220;2022-11-20T00:07:08;20.80;;;13.03;;
17259;SDS011;8746;49.230;9.220;2022-11-20T00:09:33;20.30;;;14.77;;
17259;SDS011;8746;49.230;9.220;2022-11-20T00:11:59;21.23;;;13.30;;
17259;SDS011;8746;49.230;9.220;2022-11-20T00:14:24;20.83;;;13.53;;
17259;SDS011;8746;49.230;9.220;2022-11-20T00:16:49;16.97;;;12.13;;
17259;SDS011;8746;49.230;9.220;2022-11-20T00:19:15;18.50;;;12.13;;
17259;SDS011;8746;49.230;9.220;2022-11-20T00:21:40;19.47;;;11.93;;
17259;SDS011;8746;49.230;9.220;2022-11-20T00:24:08;18.37;;;12.13;;
17259;SDS011;8746;49.230;9.220;2022-11-20T00:26:34;17.83;;;12.10;;
17259;SDS011;8746;49.230;9.220;2022-11-20T00:29:00;17.60;;;12.03;;
17259;SDS011;8746;49.230;9.220;2022-11-20T00:31:26;16.57;;;11.37;;
17259;SDS011;8746;49.230;9.220;2022-11-20T00:33:52;19.00;;;12.13;;
17259;SDS011;8746;49.230;9.220;2022-11-20T00:36:19;16.57;;;11.43;;
17259;SDS011;8746;49.230;9.220;2022-11-20T00:38:52;16.93;;;12.17;;
17259;SDS011;8746;49.230;9.220;2022-11-20T00:41:18;16.87;;;11.60;;
17259;SDS011;8746;49.230;9.220;2022-11-20T00:43:44;17.03;;;11.93;;
17259;SDS011;8746;49.230;9.220;2022-11-20T00:46:12;18.77;;;11.57;;
17259;SDS011;8746;49.230;9.220;2022-11-20T00:48:40;18.77;;;12.27;;
17259;SDS011;8746;49.230;9.220;2022-11-20T00:51:06;18.40;;;12.37;;
17259;SDS011;8746;49.230;9.220;2022-11-20T00:53:31;18.30;;;12.70;;
17259;SDS011;8746;49.230;9.220;2022-11-20T00:56:01;19.37;;;12.60;;
17259;SDS011;8746;49.230;9.220;2022-11-20T00:58:32;18.00;;;12.77;;
17259;SDS011;8746;49.230;9.220;2022-11-20T01:01:00;16.83;;;12.00;;
17259;SDS011;8746;49.230;9.220;2022-11-20T01:03:26;17.73;;;12.53;;
17259;SDS011;8746;49.230;9.220;2022-11-20T01:05:51;17.47;;;11.60;;
17259;SDS011;8746;49.230;9.220;2022-11-20T01:08:16;18.27;;;12.73;;
17259;SDS011;8746;49.230;9.220;2022-11-20T01:10:42;16.87;;;11.70;;
17259;SDS011;8746;49.230;9.220;2022-11-20T01:13:07;18.63;;;12.10;;
17259;SDS011;8746;49.230;9.220;2022-11-20T01:15:51;17.83;;;12.13;;
17259;SDS011;8746;49.230;9.220;2022-11-20T01:18:16;16.10;;;11.60;;
17259;SDS011;8746;49.230;9.220;2022-11-20T01:20:42;19.53;;;13.13;;
17259;SDS011;8746;49.230;9.220;2022-11-20T01:23:07;17.67;;;12.30;;
17259;SDS011;8746;49.230;9.220;2022-11-20T01:25:33;18.13;;;12.27;;
17259;SDS011;8746;49.230;9.220;2022-11-20T01:27:59;18.07;;;12.20;;
17259;SDS011;8746;49.230;9.220;2022-11-20T01:30:24;18.03;;;11.90;;
17259;SDS011;8746;49.230;9.220;2022-11-20T01:32:50;17.13;;;12.63;;
17259;SDS011;8746;49.230;9.220;2022-11-20T01:35:15;16.23;;;11.50;;
17259;SDS011;8746;49.230;9.220;2022-11-20T01:37:41;17.00;;;11.37;;
17259;SDS011;8746;49.230;9.220;2022-11-20T01:40:06;17.30;;;11.43;;
17259;SDS011;8746;49.230;9.220;2022-11-20T01:42:32;17.53;;;11.90;;
17259;SDS011;8746;49.230;9.220;2022-11-20T01:48:17;17.37;;;12.00;;
17259;SDS011;8746;49.230;9.220;2022-11-20T01:50:44;16.80;;;11.50;;
17259;SDS011;8746;49.230;9.220;2022-11-20T01:53:10;17.93;;;12.10;;
17259;SDS011;8746;49.230;9.220;2022-11-20T01:55:41;17.77;;;12.03;;
17259;SDS011;8746;49.230;9.220;2022-11-20T01:58:16;18.43;;;11.57;;
17259;SDS011;8746;49.230;9.220;2022-11-20T02:00:47;16.93;;;11.87;;
17259;SDS011;8746;49.230;9.220;2022-11-20T02:03:15;15.83;;;11.40;;
17259;SDS011;8746;49.230;9.220;2022-11-20T02:05:51;16.47;;;12.37;;
17259;SDS011;8746;49.230;9.220;2022-11-20T02:08:23;16.80;;;11.63;;
17259;SDS011;8746;49.230;9.220;2022-11-20T02:10:48;18.40;;;12.10;;
17259;SDS011;8746;49.230;9.220;2022-11-20T02:13:14;15.67;;;11.47;;
17259;SDS011;8746;49.230;9.220;2022-11-20T02:15:58;15.47;;;10.70;;
17259;SDS011;8746;49.230;9.220;2022-11-20T02:18:24;15.97;;;10.67;;
17259;SDS011;8746;49.230;9.220;2022-11-20T02:20:58;14.77;;;11.00;;
17259;SDS011;8746;49.230;9.220;2022-11-20T02:26:03;15.87;;;11.13;;
17259;SDS011;8746;49.230;9.220;2022-11-20T02:28:31;15.80;;;11.33;;
17259;SDS011;8746;49.230;9.220;2022-11-20T02:30:57;16.57;;;11.20;;
17259;SDS011;8746;49.230;9.220;2022-11-20T02:33:22;15.37;;;11.03;;
17259;SDS011;8746;49.230;9.220;2022-11-20T02:35:47;16.80;;;11.73;;
17259;SDS011;8746;49.230;9.220;2022-11-20T02:38:13;18.23;;;12.67;;
17259;SDS011;8746;49.230;9.220;2022-11-20T02:40:40;15.50;;;11.67;;
17259;SDS011;8746;49.230;9.220;2022-11-20T02:43:06;16.13;;;11.20;;
17259;SDS011;8746;49.230;9.220;2022-11-20T02:45:31;17.83;;;12.03;;
17259;SDS011;8746;49.230;9.220;2022-11-20T02:47:56;17.23;;;11.27;;
17259;SDS011;8746;49.230;9.220;2022-11-20T02:50:22;15.90;;;11.70;;
17259;SDS011;8746;49.230;9.220;2022-11-20T02:52:47;15.77;;;11.80;;
17259;SDS011;8746;49.230;9.220;2022-11-20T02:55:12;17.37;;;11.40;;
17259;SDS011;8746;49.230;9.220;2022-11-20T02:57:38;17.97;;;12.33;;
17259;SDS011;8746;49.230;9.220;2022-11-20T03:00:04;16.87;;;11.43;;
17259;SDS011;8746;49.230;9.220;2022-11-20T03:02:31;15.73;;;11.43;;
17259;SDS011;8746;49.230;9.220;2022-11-20T03:04:57;17.77;;;11.63;;
17259;SDS011;8746;49.230;9.220;2022-11-20T03:07:22;18.73;;;11.43;;
17259;SDS011;8746;49.230;9.220;2022-11-20T03:09:48;17.87;;;11.37;;
17259;SDS011;8746;49.230;9.220;2022-11-20T03:12:13;17.03;;;11.93;;
17259;SDS011;8746;49.230;9.220;2022-11-20T03:14:38;16.43;;;11.50;;
17259;SDS011;8746;49.230;9.220;2022-11-20T03:17:04;16.07;;;11.47;;
17259;SDS011;8746;49.230;9.220;2022-11-20T03:19:29;16.80;;;10.97;;
17259;SDS011;8746;49.230;9.220;2022-11-20T03:21:55;18.87;;;12.43;;
17259;SDS011;8746;49.230;9.220;2022-11-20T03:24:20;16.47;;;11.60;;
17259;SDS011;8746;49.230;9.220;2022-11-20T03:26:46;16.23;;;11.43;;
17259;SDS011;8746;49.230;9.220;2022-11-20T03:29:11;17.47;;;12.03;;
17259;SDS011;8746;49.230;9.220;2022-11-20T03:31:38;19.30;;;11.70;;
17259;SDS011;8746;49.230;9.220;2022-11-20T03:34:08;15.67;;;11.37;;
17259;SDS011;8746;49.230;9.220;2022-11-20T03:36:37;17.73;;;12.10;;
17259;SDS011;8746;49.230;9.220;2022-11-20T03:39:04;16.37;;;10.83;;
17259;SDS011;8746;49.230;9.220;2022-11-20T03:41:29;17.93;;;11.77;;
17259;SDS011;8746;49.230;9.220;2022-11-20T03:43:59;15.77;;;11.83;;
17259;SDS011;8746;49.230;9.220;2022-11-20T03:46:27;16.13;;;11.33;;
17259;SDS011;8746;49.230;9.220;2022-11-20T03:48:53;20.50;;;12.07;;
17259;SDS011;8746;49.230;9.220;2022-11-20T03:51:22;17.53;;;12.03;;
17259;SDS011;8746;49.230;9.220;2022-11-20T03:53:49;20.13;;;12.80;;
17259;SDS011;8746;49.230;9.220;2022-11-20T03:56:17;18.43;;;12.70;;
17259;SDS011;8746;49.230;9.220;2022-11-20T03:58:44;20.10;;;12.67;;
17259;SDS011;8746;49.230;9.220;2022-11-20T04:01:13;19.93;;;13.07;;
17259;SDS011;8746;49.230;9.220;2022-11-20T04:03:46;18.87;;;12.47;;
17259;SDS011;8746;49.230;9.220;2022-11-20T04:06:14;16.07;;;11.73;;
17259;SDS011;8746;49.230;9.220;2022-11-20T04:08:41;19.50;;;12.33;;
17259;SDS011;8746;49.230;9.220;2022-11-20T04:11:14;19.33;;;12.50;;
17259;SDS011;8746;49.230;9.220;2022-11-20T04:13:41;19.67;;;12.40;;
17259;SDS011;8746;49.230;9.220;2022-11-20T04:16:08;17.50;;;12.47;;
17259;SDS011;8746;49.230;9.220;2022-11-20T04:18:34;18.50;;;12.83;;
17259;SDS011;8746;49.230;9.220;2022-11-20T04:21:00;19.40;;;11.97;;
17259;SDS011;8746;49.230;9.220;2022-11-20T04:23:26;19.67;;;12.73;;
17259;SDS011;8746;49.230;9.220;2022-11-20T04:25:52;18.23;;;11.93;;
17259;SDS011;8746;49.230;9.220;2022-11-20T04:28:18;16.63;;;11.60;;
17259;SDS011;8746;49.230;9.220;2022-11-20T04:30:44;19.53;;;12.07;;
17259;SDS011;8746;49.230;9.220;2022-11-20T04:33:09;19.67;;;12.83;;
17259;SDS011;8746;49.230;9.220;2022-11-20T04:35:35;18.47;;;11.73;;
17259;SDS011;8746;49.230;9.220;2022-11-20T04:38:01;20.20;;;12.47;;
17259;SDS011;8746;49.230;9.220;2022-11-20T04:40:27;20.23;;;12.43;;
17259;SDS011;8746;49.230;9.220;2022-11-20T04:42:53;19.93;;;13.10;;
17259;SDS011;8746;49.230;9.220;2022-11-20T04:45:19;19.33;;;12.30;;
17259;SDS011;8746;49.230;9.220;2022-11-20T04:47:44;19.30;;;12.43;;
17259;SDS011;8746;49.230;9.220;2022-11-20T04:50:09;20.23;;;12.90;;
17259;SDS011;8746;49.230;9.220;2022-11-20T04:52:35;19.63;;;13.10;;
17259;SDS011;8746;49.230;9.220;2022-11-20T04:55:00;21.73;;;12.80;;
17259;SDS011;8746;49.230;9.220;2022-11-20T04:57:25;19.40;;;12.20;;
17259;SDS011;8746;49.230;9.220;2022-11-20T04:59:51;21.87;;;13.33;;
17259;SDS011;8746;49.230;9.220;2022-11-20T05:02:16;20.77;;;12.50;;
17259;SDS011;8746;49.230;9.220;2022-11-20T05:04:41;20.90;;;12.77;;
17259;SDS011;8746;49.230;9.220;2022-11-20T05:07:07;19.93;;;12.73;;
17259;SDS011;8746;49.230;9.220;2022-11-20T05:09:32;17.50;;;12.70;;
17259;SDS011;8746;49.230;9.220;2022-11-20T05:11:57;21.07;;;12.83;;
17259;SDS011;8746;49.230;9.220;2022-11-20T05:14:23;19.83;;;12.57;;
17259;SDS011;8746;49.230;9.220;2022-11-20T05:16:48;18.17;;;12.07;;
17259;SDS011;8746;49.230;9.220;2022-11-20T05:19:13;19.03;;;12.57;;
17259;SDS011;8746;49.230;9.220;2022-11-20T05:21:39;19.87;;;13.10;;
17259;SDS011;8746;49.230;9.220;2022-11-20T05:24:04;19.40;;;12.23;;
17259;SDS011;8746;49.230;9.220;2022-11-20T05:26:30;20.00;;;12.20;;
17259;SDS011;8746;49.230;9.220;2022-11-20T05:28:56;20.50;;;12.97;;
17259;SDS011;8746;49.230;9.220;2022-11-20T05:31:22;19.03;;;11.83;;
17259;SDS011;8746;49.230;9.220;2022-11-20T05:33:49;19.67;;;12.70;;
17259;SDS011;8746;49.230;9.220;2022-11-20T05:36:14;20.13;;;13.17;;
17259;SDS011;8746;49.230;9.220;2022-11-20T05:38:40;21.50;;;13.20;;
17259;SDS011;8746;49.230;9.220;2022-11-20T05:41:07;20.13;;;11.80;;
17259;SDS011;8746;49.230;9.220;2022-11-20T05:43:34;17.90;;;12.03;;
17259;SDS011;8746;49.230;9.220;2022-11-20T05:46:01;24.83;;;13.20;;
17259;SDS011;8746;49.230;9.220;2022-11-20T05:48:27;19.73;;;12.30;;
17259;SDS011;8746;49.230;9.220;2022-11-20T05:50:53;18.10;;;11.70;;
17259;SDS011;8746;49.230;9.220;2022-11-20T05:53:18;18.97;;;11.47;;
17259;SDS011;8746;49.230;9.220;2022-11-20T05:55:44;17.80;;;11.97;;
17259;SDS011;8746;49.230;9.220;2022-11-20T05:58:09;18.13;;;11.87;;
17259;SDS011;8746;49.230;9.220;2022-11-20T06:00:34;18.60;;;12.13;;
17259;SDS011;8746;49.230;9.220;2022-11-20T06:03:00;18.83;;;12.50;;
17259;SDS011;8746;49.230;9.220;2022-11-20T06:05:26;17.83;;;11.57;;
17259;SDS011;8746;49.230;9.220;2022-11-20T06:07:51;20.03;;;13.17;;
17259;SDS011;8746;49.230;9.220;2022-11-20T06:10:16;19.03;;;12.53;;
17259;SDS011;8746;49.230;9.220;2022-11-20T06:12:42;18.43;;;10.93;;
17259;SDS011;8746;49.230;9.220;2022-11-20T06:15:07;19.20;;;11.90;;
17259;SDS011;8746;49.230;9.220;2022-11-20T06:17:33;19.17;;;12.63;;
17259;SDS011;8746;49.230;9.220;2022-11-20T06:19:58;18.20;;;11.93;;
17259;SDS011;8746;49.230;9.220;2022-11-20T06:22:24;16.77;;;11.50;;
17259;SDS011;8746;49.230;9.220;2022-11-20T06:24:49;19.90;;;11.63;;
17259;SDS011;8746;49.230;9.220;2022-11-20T06:27:15;17.83;;;11.33;;
17259;SDS011;8746;49.230;9.220;2022-11-20T06:29:40;15.70;;;11.10;;
17259;SDS011;8746;49.230;9.220;2022-11-20T06:32:06;18.17;;;11.43;;
17259;SDS011;8746;49.230;9.220;2022-11-20T06:34:31;17.60;;;12.63;;
17259;SDS011;8746;49.230;9.220;2022-11-20T06:36:56;16.57;;;11.27;;
17259;SDS011;8746;49.230;9.220;2022-11-20T06:39:22;17.40;;;11.43;;
17259;SDS011;8746;49.230;9.220;2022-11-20T06:41:47;26.07;;;18.57;;
17259;SDS011;8746;49.230;9.220;2022-11-20T06:44:13;21.57;;;13.90;;
17259;SDS011;8746;49.230;9.220;2022-11-20T06:46:38;14.83;;;11.23;;
17259;SDS011;8746;49.230;9.220;2022-11-20T06:49:03;16.17;;;10.80;;
17259;SDS011;8746;49.230;9.220;2022-11-20T06:51:29;15.63;;;10.60;;
17259;SDS011;8746;49.230;9.220;2022-11-20T06:53:54;16.50;;;10.53;;
17259;SDS011;8746;49.230;9.220;2022-11-20T06:56:19;17.53;;;10.67;;
17259;SDS011;8746;49.230;9.220;2022-11-20T06:58:45;17.20;;;11.37;;
17259;SDS011;8746;49.230;9.220;2022-11-20T07:01:11;16.63;;;11.13;;
17259;SDS011;8746;49.230;9.220;2022-11-20T07:03:38;17.13;;;11.10;;
17259;SDS011;8746;49.230;9.220;2022-11-20T07:06:04;17.13;;;11.07;;
17259;SDS011;8746;49.230;9.220;2022-11-20T07:08:30;15.80;;;11.30;;
17259;SDS011;8746;49.230;9.220;2022-11-20T07:10:57;18.10;;;12.33;;
17259;SDS011;8746;49.230;9.220;2022-11-20T07:13:24;18.07;;;11.70;;
17259;SDS011;8746;49.230;9.220;2022-11-20T07:15:49;18.03;;;12.20;;
17259;SDS011;8746;49.230;9.220;2022-11-20T07:18:15;17.93;;;11.73;;
17259;SDS011;8746;49.230;9.220;2022-11-20T07:20:40;16.20;;;11.33;;
17259;SDS011;8746;49.230;9.220;2022-11-20T07:23:05;16.10;;;11.30;;
17259;SDS011;8746;49.230;9.220;2022-11-20T07:25:31;17.70;;;11.30;;
17259;SDS011;8746;49.230;9.220;2022-11-20T07:27:57;15.53;;;10.33;;
17259;SDS011;8746;49.230;9.220;2022-11-20T07:30:23;17.73;;;11.13;;
17259;SDS011;8746;49.230;9.220;2022-11-20T07:32:52;16.20;;;11.60;;
17259;SDS011;8746;49.230;9.220;2022-11-20T07:35:19;16.47;;;10.47;;
17259;SDS011;8746;49.230;9.220;2022-11-20T07:37:44;13.63;;;9.83;;
17259;SDS011;8746;49.230;9.220;2022-11-20T07:40:11;14.03;;;9.57;;
17259;SDS011;8746;49.230;9.220;2022-11-20T07:45:15;12.37;;;9.90;;
17259;SDS011;8746;49.230;9.220;2022-11-20T07:47:40;11.27;;;9.63;;
17259;SDS011;8746;49.230;9.220;2022-11-20T07:50:06;15.83;;;11.00;;
17259;SDS011;8746;49.230;9.220;2022-11-20T07:52:32;21.47;;;18.87;;
17259;SDS011;8746;49.230;9.220;2022-11-20T07:54:57;11.47;;;9.03;;
17259;SDS011;8746;49.230;9.220;2022-11-20T07:57:23;11.03;;;8.03;;
17259;SDS011;8746;49.230;9.220;2022-11-20T07:59:48;11.17;;;6.93;;
17259;SDS011;8746;49.230;9.220;2022-11-20T08:02:13;8.53;;;6.50;;
17259;SDS011;8746;49.230;9.220;2022-11-20T08:04:39;7.63;;;6.33;;
17259;SDS011;8746;49.230;9.220;2022-11-20T08:07:04;10.37;;;8.30;;
17259;SDS011;8746;49.230;9.220;2022-11-20T08:09:29;7.87;;;6.30;;
17259;SDS011;8746;49.230;9.220;2022-11-20T08:11:55;8.07;;;6.50;;
17259;SDS011;8746;49.230;9.220;2022-11-20T08:14:38;8.27;;;7.47;;
17259;SDS011;8746;49.230;9.220;2022-11-20T08:17:04;10.30;;;9.20;;
17259;SDS011;8746;49.230;9.220;2022-11-20T08:19:29;7.80;;;6.00;;
17259;SDS011;8746;49.230;9.220;2022-11-20T08:21:54;8.67;;;7.87;;
17259;SDS011;8746;49.230;9.220;2022-11-20T08:24:20;7.60;;;6.40;;
17259;SDS011;8746;49.230;9.220;2022-11-20T08:26:45;14.70;;;10.53;;
17259;SDS011;8746;49.230;9.220;2022-11-20T08:29:11;16.37;;;10.57;;
17259;SDS011;8746;49.230;9.220;2022-11-20T08:31:36;32.43;;;18.83;;
17259;SDS011;8746;49.230;9.220;2022-11-20T08:34:02;19.33;;;14.17;;
17259;SDS011;8746;49.230;9.220;2022-11-20T08:36:27;6.07;;;5.13;;
17259;SDS011;8746;49.230;9.220;2022-11-20T08:38:54;6.83;;;5.13;;
17259;SDS011;8746;49.230;9.220;2022-11-20T08:41:20;6.40;;;5.03;;
17259;SDS011;8746;49.230;9.220;2022-11-20T08:43:58;8.03;;;5.10;;
17259;SDS011;8746;49.230;9.220;2022-11-20T08:46:26;4.67;;;4.20;;
17259;SDS011;8746;49.230;9.220;2022-11-20T08:49:00;4.83;;;3.83;;
17259;SDS011;8746;49.230;9.220;2022-11-20T08:51:25;6.80;;;5.03;;
17259;SDS011;8746;49.230;9.220;2022-11-20T08:53:51;7.40;;;5.03;;
17259;SDS011;8746;49.230;9.220;2022-11-20T08:56:16;5.57;;;5.07;;
17259;SDS011;8746;49.230;9.220;2022-11-20T08:58:42;6.27;;;5.67;;
17259;SDS011;8746;49.230;9.220;2022-11-20T09:01:08;6.90;;;5.10;;
17259;SDS011;8746;49.230;9.220;2022-11-20T09:03:33;5.30;;;4.80;;
17259;SDS011;8746;49.230;9.220;2022-11-20T09:05:59;4.73;;;4.27;;
17259;SDS011;8746;49.230;9.220;2022-11-20T09:08:26;5.17;;;4.67;;
17259;SDS011;8746;49.230;9.220;2022-11-20T09:10:53;4.97;;;4.47;;
17259;SDS011;8746;49.230;9.220;2022-11-20T09:13:20;5.10;;;4.20;;
17259;SDS011;8746;49.230;9.220;2022-11-20T09:15:46;4.10;;;3.70;;
17259;SDS011;8746;49.230;9.220;2022-11-20T09:18:11;3.97;;;3.57;;
17259;SDS011;8746;49.230;9.220;2022-11-20T09:20:37;4.57;;;3.30;;
17259;SDS011;8746;49.230;9.220;2022-11-20T09:23:03;4.40;;;3.40;;
17259;SDS011;8746;49.230;9.220;2022-11-20T09:25:28;3.43;;;2.90;;
17259;SDS011;8746;49.230;9.220;2022-11-20T09:27:57;3.17;;;2.97;;
17259;SDS011;8746;49.230;9.220;2022-11-20T09:30:23;3.40;;;3.10;;
17259;SDS011;8746;49.230;9.220;2022-11-20T09:32:49;3.33;;;3.00;;
17259;SDS011;8746;49.230;9.220;2022-11-20T09:35:14;4.30;;;3.90;;
17259;SDS011;8746;49.230;9.220;2022-11-20T09:37:40;4.57;;;3.27;;
17259;SDS011;8746;49.230;9.220;2022-11-20T09:40:05;3.50;;;3.20;;
17259;SDS011;8746;49.230;9.220;2022-11-20T09:47:50;5.23;;;4.40;;
17259;SDS011;8746;49.230;9.220;2022-11-20T09:50:32;4.03;;;3.73;;
17259;SDS011;8746;49.230;9.220;2022-11-20T09:55:37;5.57;;;4.70;;
17259;SDS011;8746;49.230;9.220;2022-11-20T09:58:07;4.97;;;4.47;;
17259;SDS011;8746;49.230;9.220;2022-11-20T10:00:41;7.77;;;4.30;;
17259;SDS011;8746;49.230;9.220;2022-11-20T10:03:13;5.23;;;4.30;;
17259;SDS011;8746;49.230;9.220;2022-11-20T10:05:44;5.57;;;5.03;;
17259;SDS011;8746;49.230;9.220;2022-11-20T10:18:54;5.17;;;4.67;;
17259;SDS011;8746;49.230;9.220;2022-11-20T10:24:17;4.47;;;4.07;;
17259;SDS011;8746;49.230;9.220;2022-11-20T10:29:17;4.23;;;3.83;;
17259;SDS011;8746;49.230;9.220;2022-11-20T10:31:54;5.13;;;3.80;;
17259;SDS011;8746;49.230;9.220;2022-11-20T10:37:22;3.63;;;3.33;;
17259;SDS011;8746;49.230;9.220;2022-11-20T10:45:13;3.33;;;3.03;;
17259;SDS011;8746;49.230;9.220;2022-11-20T10:47:46;4.50;;;3.20;;
17259;SDS011;8746;49.230;9.220;2022-11-20T10:50:14;3.57;;;2.93;;
17259;SDS011;8746;49.230;9.220;2022-11-20T10:53:02;5.47;;;3.17;;
17259;SDS011;8746;49.230;9.220;2022-11-20T11:01:15;3.73;;;3.30;;
17259;SDS011;8746;49.230;9.220;2022-11-20T11:03:42;3.77;;;3.30;;
17259;SDS011;8746;49.230;9.220;2022-11-20T11:08:39;3.33;;;3.03;;
17259;SDS011;8746;49.230;9.220;2022-11-20T11:11:22;3.40;;;3.10;;
17259;SDS011;8746;49.230;9.220;2022-11-20T11:13:49;4.87;;;3.43;;
17259;SDS011;8746;49.230;9.220;2022-11-20T11:16:25;3.57;;;3.27;;
17259;SDS011;8746;49.230;9.220;2022-11-20T11:18:51;5.93;;;3.83;;
17259;SDS011;8746;49.230;9.220;2022-11-20T11:21:32;2.73;;;2.43;;
17259;SDS011;8746;49.230;9.220;2022-11-20T11:24:01;2.57;;;2.37;;
17259;SDS011;8746;49.230;9.220;2022-11-20T11:26:29;3.30;;;3.00;;
17259;SDS011;8746;49.230;9.220;2022-11-20T11:29:02;3.10;;;2.80;;
17259;SDS011;8746;49.230;9.220;2022-11-20T11:31:35;3.03;;;2.50;;
17259;SDS011;8746;49.230;9.220;2022-11-20T11:34:10;3.47;;;3.10;;
17259;SDS011;8746;49.230;9.220;2022-11-20T11:36:37;3.37;;;2.90;;
17259;SDS011;8746;49.230;9.220;2022-11-20T11:39:04;2.80;;;2.60;;
17259;SDS011;8746;49.230;9.220;2022-11-20T11:41:34;2.70;;;2.50;;
17259;SDS011;8746;49.230;9.220;2022-11-20T11:44:14;3.03;;;2.83;;
17259;SDS011;8746;49.230;9.220;2022-11-20T11:47:01;3.13;;;2.93;;
17259;SDS011;8746;49.230;9.220;2022-11-20T11:49:28;4.33;;;3.37;;
17259;SDS011;8746;49.230;9.220;2022-11-20T11:55:09;4.50;;;3.40;;
17259;SDS011;8746;49.230;9.220;2022-11-20T12:00:13;5.37;;;3.67;;
17259;SDS011;8746;49.230;9.220;2022-11-20T12:05:28;3.80;;;3.00;;
17259;SDS011;8746;49.230;9.220;2022-11-20T12:08:01;3.57;;;3.03;;
17259;SDS011;8746;49.230;9.220;2022-11-20T12:10:34;5.90;;;3.10;;
17259;SDS011;8746;49.230;9.220;2022-11-20T12:16:07;4.80;;;2.97;;
17259;SDS011;8746;49.230;9.220;2022-11-20T12:18:39;4.17;;;3.00;;
17259;SDS011;8746;49.230;9.220;2022-11-20T12:21:11;6.20;;;2.87;;
17259;SDS011;8746;49.230;9.220;2022-11-20T12:29:28;5.17;;;2.60;;
17259;SDS011;8746;49.230;9.220;2022-11-20T12:40:17;3.23;;;2.40;;
17259;SDS011;8746;49.230;9.220;2022-11-20T12:45:53;4.90;;;2.70;;
17259;SDS011;8746;49.230;9.220;2022-11-20T12:57:08;4.23;;;2.37;;
17259;SDS011;8746;49.230;9.220;2022-11-20T13:08:25;3.63;;;1.90;;
17259;SDS011;8746;49.230;9.220;2022-11-20T13:11:14;2.43;;;1.90;;
17259;SDS011;8746;49.230;9.220;2022-11-20T13:13:47;2.33;;;1.93;;
17259;SDS011;8746;49.230;9.220;2022-11-20T13:19:08;3.30;;;2.13;;
17259;SDS011;8746;49.230;9.220;2022-11-20T13:21:37;1.87;;;1.77;;
17259;SDS011;8746;49.230;9.220;2022-11-20T13:24:18;2.43;;;1.83;;
17259;SDS011;8746;49.230;9.220;2022-11-20T13:26:45;4.57;;;1.87;;
17259;SDS011;8746;49.230;9.220;2022-11-20T13:29:15;3.43;;;1.90;;
17259;SDS011;8746;49.230;9.220;2022-11-20T13:31:46;4.47;;;2.00;;
17259;SDS011;8746;49.230;9.220;2022-11-20T13:34:25;3.70;;;2.10;;
17259;SDS011;8746;49.230;9.220;2022-11-20T13:36:53;3.10;;;1.83;;
17259;SDS011;8746;49.230;9.220;2022-11-20T13:39:30;3.87;;;2.10;;
17259;SDS011;8746;49.230;9.220;2022-11-20T13:42:23;1.70;;;1.60;;
17259;SDS011;8746;49.230;9.220;2022-11-20T13:44:53;2.63;;;1.60;;
17259;SDS011;8746;49.230;9.220;2022-11-20T13:47:23;1.73;;;1.63;;
17259;SDS011;8746;49.230;9.220;2022-11-20T13:49:51;3.63;;;1.50;;
17259;SDS011;8746;49.230;9.220;2022-11-20T13:54:52;3.30;;;1.77;;
17259;SDS011;8746;49.230;9.220;2022-11-20T13:57:32;2.97;;;1.70;;
17259;SDS011;8746;49.230;9.220;2022-11-20T14:00:17;4.83;;;2.07;;
17259;SDS011;8746;49.230;9.220;2022-11-20T14:02:52;2.27;;;1.87;;
17259;SDS011;8746;49.230;9.220;2022-11-20T14:05:23;3.73;;;2.00;;
17259;SDS011;8746;49.230;9.220;2022-11-20T14:07:49;2.87;;;1.80;;
17259;SDS011;8746;49.230;9.220;2022-11-20T14:10:20;2.10;;;1.57;;
17259;SDS011;8746;49.230;9.220;2022-11-20T14:12:49;2.10;;;1.57;;
17259;SDS011;8746;49.230;9.220;2022-11-20T14:15:32;2.10;;;1.33;;
17259;SDS011;8746;49.230;9.220;2022-11-20T14:17:59;2.73;;;1.70;;
17259;SDS011;8746;49.230;9.220;2022-11-20T14:20:36;3.33;;;1.43;;
17259;SDS011;8746;49.230;9.220;2022-11-20T14:23:03;1.97;;;1.20;;
17259;SDS011;8746;49.230;9.220;2022-11-20T14:25:30;3.63;;;1.50;;
17259;SDS011;8746;49.230;9.220;2022-11-20T14:27:57;2.50;;;1.40;;
17259;SDS011;8746;49.230;9.220;2022-11-20T14:30:28;2.20;;;1.20;;
17259;SDS011;8746;49.230;9.220;2022-11-20T14:33:01;5.07;;;1.47;;
17259;SDS011;8746;49.230;9.220;2022-11-20T14:35:29;1.90;;;1.37;;
17259;SDS011;8746;49.230;9.220;2022-11-20T14:37:56;2.90;;;1.47;;
17259;SDS011;8746;49.230;9.220;2022-11-20T14:40:26;4.13;;;1.50;;
17259;SDS011;8746;49.230;9.220;2022-11-20T14:42:56;3.73;;;1.50;;
17259;SDS011;8746;49.230;9.220;2022-11-20T14:45:23;2.13;;;1.57;;
17259;SDS011;8746;49.230;9.220;2022-11-20T14:47:50;5.53;;;1.30;;
17259;SDS011;8746;49.230;9.220;2022-11-20T14:50:19;5.57;;;1.70;;
17259;SDS011;8746;49.230;9.220;2022-11-20T14:52:55;2.83;;;1.20;;
17259;SDS011;8746;49.230;9.220;2022-11-20T14:55:31;4.50;;;1.40;;
17259;SDS011;8746;49.230;9.220;2022-11-20T14:57:59;1.80;;;1.30;;
17259;SDS011;8746;49.230;9.220;2022-11-20T15:00:29;3.33;;;1.37;;
17259;SDS011;8746;49.230;9.220;2022-11-20T15:02:56;2.63;;;1.30;;
17259;SDS011;8746;49.230;9.220;2022-11-20T15:05:23;2.80;;;1.20;;
17259;SDS011;8746;49.230;9.220;2022-11-20T15:07:52;1.63;;;1.43;;
17259;SDS011;8746;49.230;9.220;2022-11-20T15:10:30;5.07;;;2.20;;
17259;SDS011;8746;49.230;9.220;2022-11-20T15:12:59;2.07;;;1.60;;
17259;SDS011;8746;49.230;9.220;2022-11-20T15:15:35;3.50;;;1.30;;
17259;SDS011;8746;49.230;9.220;2022-11-20T15:18:18;2.27;;;1.30;;
17259;SDS011;8746;49.230;9.220;2022-11-20T15:20:46;4.00;;;1.57;;
17259;SDS011;8746;49.230;9.220;2022-11-20T15:23:12;3.70;;;1.73;;
17259;SDS011;8746;49.230;9.220;2022-11-20T15:25:40;4.17;;;1.50;;
17259;SDS011;8746;49.230;9.220;2022-11-20T15:30:46;3.47;;;1.47;;
17259;SDS011;8746;49.230;9.220;2022-11-20T15:33:13;4.20;;;1.50;;
17259;SDS011;8746;49.230;9.220;2022-11-20T15:35:39;1.40;;;1.30;;
17259;SDS011;8746;49.230;9.220;2022-11-20T15:38:05;1.67;;;1.40;;
17259;SDS011;8746;49.230;9.220;2022-11-20T15:40:31;3.73;;;1.37;;
17259;SDS011;8746;49.230;9.220;2022-11-20T15:42:56;2.20;;;1.33;;
17259;SDS011;8746;49.230;9.220;2022-11-20T15:45:28;5.67;;;2.60;;
17259;SDS011;8746;49.230;9.220;2022-11-20T15:47:56;5.40;;;1.80;;
17259;SDS011;8746;49.230;9.220;2022-11-20T15:50:22;2.83;;;1.70;;
17259;SDS011;8746;49.230;9.220;2022-11-20T15:52:59;2.00;;;1.50;;
17259;SDS011;8746;49.230;9.220;2022-11-20T15:55:24;2.03;;;1.50;;
17259;SDS011;8746;49.230;9.220;2022-11-20T15:57:50;2.50;;;1.57;;
17259;SDS011;8746;49.230;9.220;2022-11-20T16:00:15;2.60;;;1.40;;
17259;SDS011;8746;49.230;9.220;2022-11-20T16:02:41;2.30;;;1.20;;
17259;SDS011;8746;49.230;9.220;2022-11-20T16:05:09;1.70;;;1.60;;
17259;SDS011;8746;49.230;9.220;2022-11-20T16:07:36;5.17;;;2.50;;
17259;SDS011;8746;49.230;9.220;2022-11-20T16:10:03;5.43;;;3.00;;
17259;SDS011;8746;49.230;9.220;2022-11-20T16:12:29;5.47;;;3.30;;
17259;SDS011;8746;49.230;9.220;2022-11-20T16:15:13;4.60;;;2.83;;
17259;SDS011;8746;49.230;9.220;2022-11-20T16:17:57;2.53;;;2.10;;
17259;SDS011;8746;49.230;9.220;2022-11-20T16:20:22;5.90;;;3.63;;
17259;SDS011;8746;49.230;9.220;2022-11-20T16:22:47;6.07;;;4.03;;
17259;SDS011;8746;49.230;9.220;2022-11-20T16:25:13;5.53;;;4.17;;
17259;SDS011;8746;49.230;9.220;2022-11-20T16:27:38;6.83;;;5.10;;
17259;SDS011;8746;49.230;9.220;2022-11-20T16:30:04;7.07;;;6.03;;
17259;SDS011;8746;49.230;9.220;2022-11-20T16:32:30;7.23;;;5.10;;
17259;SDS011;8746;49.230;9.220;2022-11-20T16:34:55;4.83;;;4.27;;